Time;durP1;ratioP1;P1;durP2;ratioP2;P2;SDS_P1;SDS_P2;PMS_P1;PMS_P2;Temp;Humidity;BMP_temperature;BMP_pressure;BME280_temperature;BME280_humidity;BME280_pressure;Samples;Min_cycle;Max_cycle;Signal;HPM_P1;HPM_P2
2022/04/27 00:00:13;;;;;;;;;;;12.40;94.40;12.70;99614.00;;;;345630;28;91179;-94
2022/04/27 00:00:25;;;;;;;;;;;12.40;94.50;12.60;99618.00;;;;344228;28;95840;-93
2022/04/27 00:00:43;;;;;;;;;;;12.40;94.60;12.60;99614.00;;;;345575;28;92166;-94
2022/04/27 00:00:55;;;;;;;;;;;12.40;94.70;12.60;99620.00;;;;345859;28;96969;-93
2022/04/27 00:01:09;;;;;;;;;;;12.40;94.70;12.70;99620.00;;;;346860;28;91998;-93
2022/04/27 00:01:21;;;;;;;;;;;12.40;94.60;12.70;99625.00;;;;345641;28;94796;-94
2022/04/27 00:01:33;;;;;;;;;;;12.30;94.50;12.70;99619.00;;;;345672;28;91802;-94
2022/04/27 00:01:45;;;;;;;;;;;12.30;94.50;12.60;99617.00;;;;345835;28;96304;-94
2022/04/27 00:01:57;;;;;;;;;;;12.30;94.60;12.50;99624.00;;;;344338;28;92189;-93
2022/04/27 00:02:09;;;;;;;;;;;12.30;94.70;12.60;99615.00;;;;344828;28;95541;-94
2022/04/27 00:02:21;;;;;;;;;;;12.30;94.60;12.60;99620.00;;;;344160;28;91148;-94
2022/04/27 00:02:33;;;;;;;;;;;12.30;94.60;12.60;99622.00;;;;345892;28;94615;-94
2022/04/27 00:02:45;;;;;;;;;;;12.30;94.60;12.70;99617.00;;;;344170;28;93059;-94
2022/04/27 00:02:57;;;;;;;;;;;12.30;94.50;12.70;99621.00;;;;345727;28;96772;-93
2022/04/27 00:03:08;;;;;;;;;;;12.30;94.60;12.60;99619.00;;;;344305;28;91975;-94
2022/04/27 00:03:21;;;;;;;;;;;12.30;94.60;12.70;99616.00;;;;345778;28;94386;-93
2022/04/27 00:03:33;;;;;;;;;;;12.30;94.60;12.60;99627.00;;;;344246;28;91994;-93
2022/04/27 00:03:45;;;;;;;;;;;12.30;94.50;12.60;99620.00;;;;345911;28;94793;-93
2022/04/27 00:03:57;;;;;;;;;;;12.30;94.50;12.60;99614.00;;;;345612;28;92073;-94
2022/04/27 00:04:09;;;;;;;;;;;12.30;94.50;12.60;99626.00;;;;345865;28;96180;-94
2022/04/27 00:04:20;;;;;;;;;;;12.30;94.60;12.50;99617.00;;;;344096;28;91925;-94
2022/04/27 00:04:32;;;;;;;;;;;12.30;94.60;12.60;99617.00;;;;343028;28;96545;-94
2022/04/27 00:04:45;;;;;;;;;;;12.30;94.50;12.60;99616.00;;;;345596;28;92903;-94
2022/04/27 00:04:57;;;;;;;;;;;12.30;94.50;12.50;99625.00;;;;343499;28;97000;-94
2022/04/27 00:05:09;;;;;;;;;;;12.30;94.70;12.60;99609.00;;;;345537;28;91961;-93
2022/04/27 00:05:21;;;;;;;;;;;12.30;94.60;12.60;99609.00;;;;345587;28;94964;-93
2022/04/27 00:05:33;;;;;;;;;;;12.30;94.70;12.60;99615.00;;;;347022;28;92033;-93
2022/04/27 00:05:45;;;;;;;;;;;12.30;94.80;12.60;99618.00;;;;343091;28;95376;-94
2022/04/27 00:05:56;;;;;;;;;;;12.30;94.80;12.60;99619.00;;;;343174;28;91851;-94
2022/04/27 00:06:09;;;;;;;;;;;12.30;94.70;12.60;99616.00;;;;344529;28;95487;-93
2022/04/27 00:06:21;;;;;;;;;;;12.30;94.70;12.50;99617.00;;;;345638;28;92063;-94
2022/04/27 00:06:33;;;;;;;;;;;12.30;94.70;12.50;99621.00;;;;343126;28;94825;-94
2022/04/27 00:06:45;;;;;;;;;;;12.30;94.70;12.60;99618.00;;;;345547;28;92956;-94
2022/04/27 00:06:57;;;;;;;;;;;12.30;94.70;12.60;99615.00;;;;347181;28;96989;-93
2022/04/27 00:07:09;;;;;;;;;;;12.30;94.70;12.50;99616.00;;;;344376;28;91965;-94
2022/04/27 00:07:20;;;;;;;;;;;12.30;94.70;12.50;99615.00;;;;345561;28;95105;-94
2022/04/27 00:07:32;;;;;;;;;;;12.20;94.60;12.50;99613.00;;;;345545;28;91971;-94
2022/04/27 00:07:44;;;;;;;;;;;12.20;94.70;12.40;99610.00;;;;345871;28;94839;-93
2022/04/27 00:07:56;;;;;;;;;;;12.20;94.70;12.40;99616.00;;;;345272;28;92213;-93
2022/04/27 00:08:08;;;;;;;;;;;12.20;94.70;12.50;99615.00;;;;344418;28;94818;-93
2022/04/27 00:08:20;;;;;;;;;;;12.20;94.70;12.50;99619.00;;;;345645;28;92215;-94
2022/04/27 00:08:32;;;;;;;;;;;12.20;94.80;12.50;99612.00;;;;344476;28;95173;-94
2022/04/27 00:08:44;;;;;;;;;;;12.20;94.80;12.50;99613.00;;;;344183;28;92954;-94
2022/04/27 00:08:56;;;;;;;;;;;12.20;94.70;12.50;99613.00;;;;343131;28;96477;-93
2022/04/27 00:09:08;;;;;;;;;;;12.20;94.80;12.50;99612.00;;;;344337;28;91103;-94
2022/04/27 00:09:19;;;;;;;;;;;12.20;94.80;12.60;99614.00;;;;343001;28;94391;-94
2022/04/27 00:09:31;;;;;;;;;;;12.20;94.90;12.60;99617.00;;;;342931;28;91985;-93
2022/04/27 00:09:43;;;;;;;;;;;12.20;94.90;12.60;99616.00;;;;344446;28;96092;-93
2022/04/27 00:09:55;;;;;;;;;;;12.20;94.80;12.50;99612.00;;;;345608;28;91996;-93
2022/04/27 00:10:07;;;;;;;;;;;12.20;94.80;12.60;99624.00;;;;345977;28;94869;-94
2022/04/27 00:10:19;;;;;;;;;;;12.20;94.80;12.50;99616.00;;;;342940;28;91183;-94
2022/04/27 00:10:30;;;;;;;;;;;12.20;94.80;12.50;99626.00;;;;343267;28;94520;-93
2022/04/27 00:10:42;;;;;;;;;;;12.20;94.80;12.50;99621.00;;;;342858;28;92895;-93
2022/04/27 00:10:54;;;;;;;;;;;12.20;94.70;12.50;99627.00;;;;344568;28;97179;-93
2022/04/27 00:11:06;;;;;;;;;;;12.20;94.70;12.60;99615.00;;;;343880;28;92148;-94
2022/04/27 00:11:18;;;;;;;;;;;12.20;94.70;12.60;99628.00;;;;345449;28;95613;-94
2022/04/27 00:11:30;;;;;;;;;;;12.20;95.00;12.50;99625.00;;;;347089;27;92100;-93
2022/04/27 00:11:42;;;;;;;;;;;12.20;94.80;12.50;99618.00;;;;347245;28;95941;-94
2022/04/27 00:11:56;;;;;;;;;;;12.20;94.80;12.50;99625.00;;;;345480;28;91958;-94
2022/04/27 00:12:08;;;;;;;;;;;12.20;94.70;12.50;99614.00;;;;344594;28;94438;-93
2022/04/27 00:12:22;;;;;;;;;;;12.20;94.90;12.60;99621.00;;;;344195;28;93018;-94
2022/04/27 00:12:34;;;;;;;;;;;12.20;94.80;12.60;99624.00;;;;344476;28;94607;-93
2022/04/27 00:12:46;;;;;;;;;;;12.20;94.80;12.50;99618.00;;;;344044;28;93011;-94
2022/04/27 00:12:58;;;;;;;;;;;12.20;94.80;12.40;99622.00;;;;344476;28;97384;-94
2022/04/27 00:13:16;;;;;;;;;;;12.20;94.80;12.40;99621.00;;;;344311;28;91124;-94
2022/04/27 00:13:28;;;;;;;;;;;12.20;94.80;12.50;99617.00;;;;344422;28;96022;-94
2022/04/27 00:13:40;;;;;;;;;;;12.20;94.90;12.40;99617.00;;;;345633;28;91120;-93
2022/04/27 00:13:52;;;;;;;;;;;12.20;95.00;12.40;99617.00;;;;348320;27;95430;-94
2022/04/27 00:14:05;;;;;;;;;;;12.20;94.90;12.40;99621.00;;;;346335;28;92137;-94
2022/04/27 00:14:17;;;;;;;;;;;12.20;95.00;12.30;99619.00;;;;343183;28;95753;-93
2022/04/27 00:14:29;;;;;;;;;;;12.10;95.00;12.50;99616.00;;;;345120;28;92164;-94
2022/04/27 00:14:41;;;;;;;;;;;12.10;94.90;12.50;99617.00;;;;348171;27;94831;-94
2022/04/27 00:14:53;;;;;;;;;;;12.20;95.00;12.40;99620.00;;;;344182;28;92913;-93
2022/04/27 00:15:05;;;;;;;;;;;12.20;95.00;12.40;99621.00;;;;345838;28;95469;-94
2022/04/27 00:15:20;;;;;;;;;;;12.10;95.00;12.50;99625.00;;;;344201;28;92050;-94
2022/04/27 00:15:32;;;;;;;;;;;12.10;95.00;12.40;99624.00;;;;344484;28;96442;-94
2022/04/27 00:15:44;;;;;;;;;;;12.10;94.90;12.50;99623.00;;;;345618;28;92019;-92
2022/04/27 00:15:56;;;;;;;;;;;12.10;94.90;12.40;99624.00;;;;344472;28;95881;-94
2022/04/27 00:16:08;;;;;;;;;;;12.10;95.00;12.40;99628.00;;;;345607;28;91145;-93
2022/04/27 00:16:19;;;;;;;;;;;12.10;95.00;12.40;99617.00;;;;345858;28;94683;-93
2022/04/27 00:16:31;;;;;;;;;;;12.10;95.00;12.40;99618.00;;;;345676;28;91849;-93
2022/04/27 00:16:44;;;;;;;;;;;12.10;95.00;12.50;99621.00;;;;344437;28;94984;-93
2022/04/27 00:16:56;;;;;;;;;;;12.10;94.90;12.50;99620.00;;;;346729;28;93069;-93
2022/04/27 00:17:08;;;;;;;;;;;12.10;94.90;12.40;99621.00;;;;344607;28;97428;-94
2022/04/27 00:17:20;;;;;;;;;;;12.10;94.90;12.50;99623.00;;;;345525;28;91987;-94
2022/04/27 00:17:32;;;;;;;;;;;12.10;94.90;12.50;99623.00;;;;347200;28;95583;-93
2022/04/27 00:17:44;;;;;;;;;;;12.10;94.90;12.40;99616.00;;;;345440;28;91993;-93
2022/04/27 00:17:55;;;;;;;;;;;12.10;94.80;12.50;99622.00;;;;345718;28;95454;-94
2022/04/27 00:18:07;;;;;;;;;;;12.10;94.90;12.40;99620.00;;;;343970;28;91324;-94
2022/04/27 00:18:19;;;;;;;;;;;12.10;95.00;12.40;99616.00;;;;344226;28;94447;-94
2022/04/27 00:18:31;;;;;;;;;;;12.10;94.90;12.40;99615.00;;;;348419;27;92135;-93
2022/04/27 00:18:43;;;;;;;;;;;12.10;94.90;12.40;99621.00;;;;347134;28;94680;-93
2022/04/27 00:18:54;;;;;;;;;;;12.10;94.90;12.40;99621.00;;;;348470;27;92067;-94
2022/04/27 00:19:06;;;;;;;;;;;12.10;95.00;12.50;99616.00;;;;348609;27;96043;-94
2022/04/27 00:19:18;;;;;;;;;;;12.10;94.90;12.40;99620.00;;;;344190;28;92015;-94
2022/04/27 00:19:30;;;;;;;;;;;12.10;94.90;12.50;99614.00;;;;347222;28;94949;-94
2022/04/27 00:19:42;;;;;;;;;;;12.10;94.90;12.40;99620.00;;;;348363;27;91958;-93
2022/04/27 00:19:54;;;;;;;;;;;12.10;95.00;12.40;99615.00;;;;343831;28;95643;-93
2022/04/27 00:20:07;;;;;;;;;;;12.10;95.00;12.40;99613.00;;;;344045;28;91253;-93
2022/04/27 00:20:19;;;;;;;;;;;12.10;95.00;12.40;99624.00;;;;344470;28;95783;-95
2022/04/27 00:20:30;;;;;;;;;;;12.10;94.90;12.40;99616.00;;;;345150;28;92679;-94
2022/04/27 00:20:42;;;;;;;;;;;12.10;94.90;12.40;99620.00;;;;345729;28;95480;-94
2022/04/27 00:20:54;;;;;;;;;;;12.10;94.90;12.50;99618.00;;;;345554;28;92830;-94
2022/04/27 00:21:06;;;;;;;;;;;12.10;95.00;12.40;99621.00;;;;343097;28;95363;-93
2022/04/27 00:21:18;;;;;;;;;;;12.10;95.00;12.40;99612.00;;;;344191;28;92041;-94
2022/04/27 00:21:30;;;;;;;;;;;12.10;94.90;12.40;99623.00;;;;345774;28;96798;-93
2022/04/27 00:21:41;;;;;;;;;;;12.10;94.80;12.40;99618.00;;;;345534;28;91963;-94
2022/04/27 00:21:53;;;;;;;;;;;12.10;94.80;12.40;99613.00;;;;345750;28;95111;-96
2022/04/27 00:22:05;;;;;;;;;;;12.10;94.80;12.40;99625.00;;;;344229;28;91209;-94
2022/04/27 00:22:17;;;;;;;;;;;12.10;94.90;12.40;99624.00;;;;347299;28;95074;-94
2022/04/27 00:22:29;;;;;;;;;;;12.10;94.90;12.40;99615.00;;;;345574;28;92105;-94
2022/04/27 00:22:41;;;;;;;;;;;12.10;94.80;12.40;99623.00;;;;345767;28;94395;-93
2022/04/27 00:22:53;;;;;;;;;;;12.10;94.80;12.50;99622.00;;;;342719;28;92921;-94
2022/04/27 00:23:04;;;;;;;;;;;12.10;94.80;12.40;99621.00;;;;346685;28;95673;-93
2022/04/27 00:23:16;;;;;;;;;;;12.10;94.80;12.40;99616.00;;;;342759;28;92062;-94
2022/04/27 00:23:30;;;;;;;;;;;12.10;94.80;12.40;99623.00;;;;346578;28;94319;-94
2022/04/27 00:23:42;;;;;;;;;;;12.10;94.90;12.40;99625.00;;;;344251;28;91289;-93
2022/04/27 00:23:54;;;;;;;;;;;12.10;94.90;12.40;99628.00;;;;344486;28;95994;-94
2022/04/27 00:24:06;;;;;;;;;;;12.10;94.90;12.40;99618.00;;;;344143;28;92042;-93
2022/04/27 00:24:18;;;;;;;;;;;12.10;94.90;12.50;99621.00;;;;345512;28;95074;-93
2022/04/27 00:24:30;;;;;;;;;;;12.10;94.90;12.40;99618.00;;;;344208;28;91926;-94
2022/04/27 00:24:42;;;;;;;;;;;12.10;94.90;12.50;99618.00;;;;345779;28;94597;-94
2022/04/27 00:24:56;;;;;;;;;;;12.10;94.90;12.40;99612.00;;;;345513;28;92955;-94
2022/04/27 00:25:08;;;;;;;;;;;12.10;95.00;12.40;99623.00;;;;344479;28;97188;-93
2022/04/27 00:25:20;;;;;;;;;;;12.10;95.00;12.40;99623.00;;;;348298;27;91953;-93
2022/04/27 00:25:32;;;;;;;;;;;12.10;95.00;12.50;99616.00;;;;344553;28;95396;-94
2022/04/27 00:25:44;;;;;;;;;;;12.10;95.00;12.40;99621.00;;;;345433;28;92056;-94
2022/04/27 00:25:56;;;;;;;;;;;12.10;95.00;12.40;99622.00;;;;346950;28;94429;-93
2022/04/27 00:26:09;;;;;;;;;;;12.10;95.10;12.40;99623.00;;;;344226;28;91969;-93
2022/04/27 00:26:21;;;;;;;;;;;12.10;95.00;12.50;99624.00;;;;341744;28;95762;-94
2022/04/27 00:26:33;;;;;;;;;;;12.10;95.10;12.50;99617.00;;;;344218;28;91925;-94
2022/04/27 00:26:45;;;;;;;;;;;12.10;95.00;12.40;99621.00;;;;344460;28;95983;-94
2022/04/27 00:26:57;;;;;;;;;;;12.10;95.00;12.40;99628.00;;;;343220;28;92189;-93
2022/04/27 00:27:08;;;;;;;;;;;12.00;95.00;12.40;99622.00;;;;345820;28;96764;-92
2022/04/27 00:27:20;;;;;;;;;;;12.10;94.90;12.50;99624.00;;;;345544;28;92022;-94
2022/04/27 00:27:32;;;;;;;;;;;12.10;95.00;12.50;99617.00;;;;344346;28;96171;-94
2022/04/27 00:27:44;;;;;;;;;;;12.10;95.00;12.40;99620.00;;;;342532;28;92018;-94
2022/04/27 00:27:56;;;;;;;;;;;12.10;95.00;12.40;99627.00;;;;344514;28;93489;-94
2022/04/27 00:28:07;;;;;;;;;;;12.10;95.00;12.40;99624.00;;;;344088;28;91175;-94
2022/04/27 00:28:19;;;;;;;;;;;12.10;95.00;12.40;99624.00;;;;344471;28;95705;-93
2022/04/27 00:28:31;;;;;;;;;;;12.10;94.90;12.40;99620.00;;;;345780;28;91196;-94
2022/04/27 00:28:43;;;;;;;;;;;12.00;94.90;12.40;99618.00;;;;344288;28;94585;-93
2022/04/27 00:28:55;;;;;;;;;;;12.10;95.10;12.40;99629.00;;;;345696;28;92928;-93
2022/04/27 00:29:07;;;;;;;;;;;12.10;95.10;12.40;99628.00;;;;346833;28;95947;-94
2022/04/27 00:29:19;;;;;;;;;;;12.10;95.00;12.40;99620.00;;;;348376;27;91491;-93
2022/04/27 00:29:31;;;;;;;;;;;12.10;95.00;12.30;99618.00;;;;347123;28;95663;-93
2022/04/27 00:29:43;;;;;;;;;;;12.00;95.00;12.40;99618.00;;;;344286;28;91871;-94
2022/04/27 00:29:55;;;;;;;;;;;12.00;95.00;12.40;99620.00;;;;345727;28;95524;-93
2022/04/27 00:30:09;;;;;;;;;;;12.10;95.00;12.40;99626.00;;;;342874;28;91200;-93
2022/04/27 00:30:21;;;;;;;;;;;12.10;95.10;12.40;99627.00;;;;343050;28;96425;-94
2022/04/27 00:30:33;;;;;;;;;;;12.00;95.00;12.40;99626.00;;;;346946;28;91926;-94
2022/04/27 00:30:44;;;;;;;;;;;12.10;94.90;12.40;99625.00;;;;342961;28;96389;-94
2022/04/27 00:30:56;;;;;;;;;;;12.10;95.00;12.40;99625.00;;;;344220;28;92056;-93
2022/04/27 00:31:08;;;;;;;;;;;12.00;95.00;12.40;99626.00;;;;347185;28;96077;-94
2022/04/27 00:31:20;;;;;;;;;;;12.10;95.10;12.40;99616.00;;;;344214;28;92083;-94
2022/04/27 00:31:32;;;;;;;;;;;12.00;95.00;12.40;99621.00;;;;345886;28;95255;-94
2022/04/27 00:31:43;;;;;;;;;;;12.00;95.00;12.40;99624.00;;;;346691;28;92089;-94
2022/04/27 00:31:55;;;;;;;;;;;12.00;95.00;12.40;99621.00;;;;344790;28;95599;-94
2022/04/27 00:32:07;;;;;;;;;;;12.00;95.00;12.40;99620.00;;;;348150;27;92026;-93
2022/04/27 00:32:19;;;;;;;;;;;12.00;95.00;12.40;99624.00;;;;344507;28;94733;-93
2022/04/27 00:32:31;;;;;;;;;;;12.00;95.00;12.40;99617.00;;;;345649;28;91901;-94
2022/04/27 00:32:43;;;;;;;;;;;12.00;95.00;12.40;99623.00;;;;346942;28;95686;-93
2022/04/27 00:32:55;;;;;;;;;;;12.00;95.00;12.40;99621.00;;;;345486;28;92996;-94
2022/04/27 00:33:07;;;;;;;;;;;12.00;95.00;12.40;99618.00;;;;345826;28;94986;-93
2022/04/27 00:33:18;;;;;;;;;;;12.00;95.00;12.40;99621.00;;;;344075;28;91974;-93
2022/04/27 00:33:31;;;;;;;;;;;12.10;95.10;12.30;99624.00;;;;344549;28;94322;-94
2022/04/27 00:33:43;;;;;;;;;;;12.10;95.00;12.40;99619.00;;;;344137;28;92041;-94
2022/04/27 00:33:55;;;;;;;;;;;12.00;95.00;12.40;99632.00;;;;344381;28;96522;-94
2022/04/27 00:34:07;;;;;;;;;;;12.00;95.00;12.40;99628.00;;;;345555;28;91979;-93
2022/04/27 00:34:18;;;;;;;;;;;12.00;95.00;12.40;99626.00;;;;345880;28;94541;-94
2022/04/27 00:34:30;;;;;;;;;;;12.10;95.00;12.40;99622.00;;;;344182;28;91951;-93
2022/04/27 00:34:42;;;;;;;;;;;12.00;94.90;12.40;99625.00;;;;346925;28;93387;-93
2022/04/27 00:34:54;;;;;;;;;;;12.00;94.90;12.40;99621.00;;;;348130;27;92141;-94
2022/04/27 00:35:08;;;;;;;;;;;12.00;95.00;12.30;99629.00;;;;345711;28;96825;-93
2022/04/27 00:35:20;;;;;;;;;;;12.00;95.00;12.40;99623.00;;;;345514;28;92074;-93
2022/04/27 00:35:31;;;;;;;;;;;12.00;94.90;12.40;99627.00;;;;344420;28;97552;-94
2022/04/27 00:35:43;;;;;;;;;;;12.00;95.00;12.30;99628.00;;;;345540;28;92282;-93
2022/04/27 00:35:55;;;;;;;;;;;12.00;95.00;12.30;99630.00;;;;345662;28;95570;-94
2022/04/27 00:36:07;;;;;;;;;;;12.00;94.90;12.30;99628.00;;;;346984;28;92056;-94
2022/04/27 00:36:19;;;;;;;;;;;12.00;94.90;12.40;99622.00;;;;345914;28;95394;-94
2022/04/27 00:36:31;;;;;;;;;;;12.00;95.20;12.40;99622.00;;;;345656;28;91891;-94
2022/04/27 00:36:43;;;;;;;;;;;12.00;94.90;12.40;99619.00;;;;345718;28;95548;-93
2022/04/27 00:36:55;;;;;;;;;;;12.10;95.00;12.40;99620.00;;;;346938;28;92971;-93
2022/04/27 00:37:06;;;;;;;;;;;12.00;94.90;12.40;99618.00;;;;346159;28;95019;-93
2022/04/27 00:37:18;;;;;;;;;;;12.10;94.90;12.30;99625.00;;;;344544;28;92026;-94
2022/04/27 00:37:30;;;;;;;;;;;12.00;94.90;12.40;99619.00;;;;344804;28;94895;-94
2022/04/27 00:37:42;;;;;;;;;;;12.00;94.90;12.40;99624.00;;;;344620;28;91149;-94
2022/04/27 00:37:54;;;;;;;;;;;12.00;94.90;12.30;99629.00;;;;345782;28;95355;-93
2022/04/27 00:38:06;;;;;;;;;;;12.00;95.00;12.40;99628.00;;;;344320;28;91224;-94
2022/04/27 00:38:17;;;;;;;;;;;12.00;95.00;12.30;99628.00;;;;346320;28;95668;-94
2022/04/27 00:38:29;;;;;;;;;;;12.00;94.90;12.30;99624.00;;;;347294;28;91063;-93
2022/04/27 00:38:41;;;;;;;;;;;12.00;94.90;12.30;99624.00;;;;345695;28;94996;-93
2022/04/27 00:38:53;;;;;;;;;;;12.00;95.00;12.40;99621.00;;;;345791;28;93372;-93
2022/04/27 00:39:05;;;;;;;;;;;12.00;95.00;12.40;99618.00;;;;345992;28;96397;-93
2022/04/27 00:39:17;;;;;;;;;;;12.00;95.00;12.40;99620.00;;;;345963;28;91099;-94
2022/04/27 00:39:29;;;;;;;;;;;12.00;95.00;12.40;99622.00;;;;344885;28;95107;-94
2022/04/27 00:39:41;;;;;;;;;;;12.00;95.00;12.40;99618.00;;;;345999;28;91924;-93
2022/04/27 00:39:53;;;;;;;;;;;12.00;94.90;12.40;99614.00;;;;344760;28;96153;-93
2022/04/27 00:40:05;;;;;;;;;;;12.00;94.90;12.40;99625.00;;;;344619;28;91973;-93
2022/04/27 00:40:17;;;;;;;;;;;12.00;94.90;12.40;99623.00;;;;344738;28;94848;-94
2022/04/27 00:40:29;;;;;;;;;;;12.00;94.90;12.40;99623.00;;;;343141;28;92085;-93
2022/04/27 00:40:41;;;;;;;;;;;12.00;94.90;12.40;99624.00;;;;344811;28;95709;-93
2022/04/27 00:40:52;;;;;;;;;;;12.00;95.00;12.40;99626.00;;;;344218;28;93058;-93
2022/04/27 00:41:04;;;;;;;;;;;12.00;95.00;12.30;99626.00;;;;345731;28;93254;-93
2022/04/27 00:41:16;;;;;;;;;;;12.00;95.00;12.40;99619.00;;;;344702;28;91175;-94
2022/04/27 00:41:28;;;;;;;;;;;12.00;95.00;12.40;99622.00;;;;344221;28;95136;-93
2022/04/27 00:41:58;;;;;;;;;;;12.00;95.00;12.40;99619.00;;;;344458;28;91940;-93
2022/04/27 00:42:21;;;;;;;;;;;12.00;95.00;12.30;99630.00;;;;343120;28;95727;-92
2022/04/27 00:42:33;;;;;;;;;;;12.00;94.90;12.30;99630.00;;;;344006;28;91993;-93
2022/04/27 00:42:45;;;;;;;;;;;12.00;95.00;12.40;99631.00;;;;343005;28;95906;-93
2022/04/27 00:42:57;;;;;;;;;;;12.00;95.00;12.30;99621.00;;;;344257;28;92038;-94
2022/04/27 00:43:08;;;;;;;;;;;12.00;94.90;12.30;99631.00;;;;344718;28;94827;-94
2022/04/27 00:43:40;;;;;;;;;;;12.00;95.00;12.50;99627.00;;;;341637;28;93145;-94
2022/04/27 00:43:52;;;;;;;;;;;12.00;95.00;12.40;99629.00;;;;343183;28;95291;-94
2022/04/27 00:44:04;;;;;;;;;;;12.00;95.00;12.40;99632.00;;;;343753;28;92065;-93
2022/04/27 00:44:16;;;;;;;;;;;12.00;95.00;12.40;99627.00;;;;344360;28;95703;-93
2022/04/27 00:44:28;;;;;;;;;;;12.00;95.00;12.40;99630.00;;;;341475;28;92251;-94
2022/04/27 00:44:44;;;;;;;;;;;12.00;95.10;12.40;99631.00;;;;343257;28;94658;-93
2022/04/27 00:44:55;;;;;;;;;;;12.00;95.00;12.40;99631.00;;;;344315;28;92148;-94
2022/04/27 00:45:08;;;;;;;;;;;12.00;95.00;12.40;99628.00;;;;346012;28;94504;-93
2022/04/27 00:45:20;;;;;;;;;;;12.00;95.10;12.30;99635.00;;;;344161;28;91245;-93
2022/04/27 00:45:32;;;;;;;;;;;12.00;95.10;12.30;99637.00;;;;344510;28;94905;-93
2022/04/27 00:45:44;;;;;;;;;;;12.00;95.20;12.30;99631.00;;;;345545;28;92878;-94
2022/04/27 00:45:55;;;;;;;;;;;12.00;95.10;12.30;99637.00;;;;346880;28;97162;-94
2022/04/27 00:46:09;;;;;;;;;;;12.00;95.10;12.30;99637.00;;;;345590;28;91977;-93
2022/04/27 00:46:21;;;;;;;;;;;12.00;95.20;12.30;99637.00;;;;347225;28;94516;-94
2022/04/27 00:46:33;;;;;;;;;;;12.00;95.30;12.30;99634.00;;;;342864;28;92088;-94
2022/04/27 00:46:45;;;;;;;;;;;12.00;95.20;12.40;99630.00;;;;345797;28;96067;-94
2022/04/27 00:46:57;;;;;;;;;;;11.90;95.20;12.40;99634.00;;;;344490;28;91184;-93
2022/04/27 00:47:08;;;;;;;;;;;11.90;95.20;12.30;99631.00;;;;343382;28;96085;-93
2022/04/27 00:47:20;;;;;;;;;;;12.00;95.20;12.40;99637.00;;;;345546;28;91246;-93
2022/04/27 00:47:32;;;;;;;;;;;12.00;95.20;12.40;99634.00;;;;345772;28;95388;-93
2022/04/27 00:47:44;;;;;;;;;;;12.00;95.10;12.40;99634.00;;;;346804;28;92972;-94
2022/04/27 00:47:56;;;;;;;;;;;11.90;95.10;12.40;99640.00;;;;345735;28;97335;-94
2022/04/27 00:48:09;;;;;;;;;;;11.90;95.10;12.40;99636.00;;;;345642;28;91153;-94
2022/04/27 00:48:21;;;;;;;;;;;11.90;95.10;12.40;99635.00;;;;345962;28;94708;-93
2022/04/27 00:48:33;;;;;;;;;;;11.90;95.20;12.40;99640.00;;;;345626;28;91159;-94
2022/04/27 00:48:45;;;;;;;;;;;11.90;95.20;12.40;99628.00;;;;345781;28;95073;-93
2022/04/27 00:48:57;;;;;;;;;;;11.90;95.20;12.40;99631.00;;;;345597;28;91976;-94
2022/04/27 00:49:08;;;;;;;;;;;11.90;95.20;12.30;99631.00;;;;345786;28;96172;-93
2022/04/27 00:49:20;;;;;;;;;;;11.90;95.10;12.40;99631.00;;;;345545;28;92071;-93
2022/04/27 00:49:32;;;;;;;;;;;11.90;95.10;12.40;99631.00;;;;344500;28;95610;-93
2022/04/27 00:49:48;;;;;;;;;;;11.90;95.10;12.40;99640.00;;;;344039;28;92162;-93
2022/04/27 00:50:02;;;;;;;;;;;11.90;95.20;12.50;99637.00;;;;343733;28;96075;-93
2022/04/27 00:50:14;;;;;;;;;;;12.00;95.20;12.50;99631.00;;;;344363;28;92017;-94
2022/04/27 00:50:26;;;;;;;;;;;12.00;95.20;12.50;99632.00;;;;343119;28;95950;-94
2022/04/27 00:50:38;;;;;;;;;;;12.00;95.10;12.40;99631.00;;;;342724;28;91301;-93
2022/04/27 00:50:52;;;;;;;;;;;12.00;95.10;12.40;99635.00;;;;343025;28;95215;-94
2022/04/27 00:51:03;;;;;;;;;;;12.00;95.00;12.50;99631.00;;;;344043;28;91873;-93
2022/04/27 00:51:18;;;;;;;;;;;12.00;95.00;12.30;99630.00;;;;343080;28;94844;-93
2022/04/27 00:51:30;;;;;;;;;;;12.00;95.00;12.40;99635.00;;;;344286;28;91085;-94
2022/04/27 00:51:42;;;;;;;;;;;12.00;95.00;12.40;99633.00;;;;343030;28;96183;-94
2022/04/27 00:51:54;;;;;;;;;;;12.00;95.00;12.40;99630.00;;;;342743;28;92968;-93
2022/04/27 00:52:06;;;;;;;;;;;12.00;95.00;12.40;99631.00;;;;344208;28;96668;-94
2022/04/27 00:52:19;;;;;;;;;;;12.00;95.00;12.40;99628.00;;;;344226;28;91927;-94
2022/04/27 00:52:32;;;;;;;;;;;12.00;95.20;12.40;99629.00;;;;347237;28;96099;-94
2022/04/27 00:52:44;;;;;;;;;;;12.00;95.20;12.30;99635.00;;;;345539;28;92033;-95
2022/04/27 00:52:55;;;;;;;;;;;12.00;95.10;12.20;99628.00;;;;346069;28;94569;-94
2022/04/27 00:53:07;;;;;;;;;;;12.00;95.00;12.20;99630.00;;;;346716;28;92071;-94
2022/04/27 00:53:19;;;;;;;;;;;12.00;95.00;12.30;99634.00;;;;345698;28;95835;-94
2022/04/27 00:53:31;;;;;;;;;;;12.00;95.10;12.20;99626.00;;;;344309;28;91998;-93
2022/04/27 00:53:43;;;;;;;;;;;12.00;95.10;12.20;99625.00;;;;346951;28;96110;-94
2022/04/27 00:53:58;;;;;;;;;;;11.90;95.10;12.30;99632.00;;;;345294;28;92912;-94
2022/04/27 00:54:10;;;;;;;;;;;12.00;95.10;12.30;99632.00;;;;347160;28;97154;-94
2022/04/27 00:54:22;;;;;;;;;;;12.00;95.10;12.30;99624.00;;;;344186;28;91985;-93
2022/04/27 00:54:34;;;;;;;;;;;11.90;95.00;12.40;99622.00;;;;347116;28;96356;-93
2022/04/27 00:54:48;;;;;;;;;;;11.90;95.10;12.30;99632.00;;;;348336;27;91969;-93
2022/04/27 00:55:00;;;;;;;;;;;11.90;95.00;12.20;99630.00;;;;347129;28;94953;-93
2022/04/27 00:55:11;;;;;;;;;;;12.00;95.00;12.20;99635.00;;;;345637;28;92057;-93
2022/04/27 00:55:23;;;;;;;;;;;11.90;95.00;12.20;99629.00;;;;345784;28;95699;-94
2022/04/27 00:55:35;;;;;;;;;;;11.90;95.00;12.30;99631.00;;;;345734;28;91142;-94
2022/04/27 00:55:47;;;;;;;;;;;11.90;95.00;12.30;99625.00;;;;345753;28;94917;-93
2022/04/27 00:55:59;;;;;;;;;;;12.00;95.20;12.30;99630.00;;;;342429;28;95656;-93
2022/04/27 00:56:11;;;;;;;;;;;11.90;95.20;12.30;99628.00;;;;344261;28;96867;-93
2022/04/27 00:56:27;;;;;;;;;;;11.90;95.20;12.30;99626.00;;;;346039;28;91240;-93
2022/04/27 00:56:39;;;;;;;;;;;12.00;95.10;12.30;99629.00;;;;344401;28;95119;-94
2022/04/27 00:56:51;;;;;;;;;;;11.90;95.10;12.30;99629.00;;;;344087;28;91117;-94
2022/04/27 00:57:03;;;;;;;;;;;11.90;95.10;12.30;99629.00;;;;345481;28;96155;-93
2022/04/27 00:57:15;;;;;;;;;;;11.90;95.10;12.20;99628.00;;;;345592;28;92002;-93
2022/04/27 00:57:27;;;;;;;;;;;11.90;95.20;12.20;99623.00;;;;343131;28;95925;-93
2022/04/27 00:57:39;;;;;;;;;;;11.90;95.10;12.10;99621.00;;;;344372;28;91952;-93
2022/04/27 00:57:51;;;;;;;;;;;11.90;95.00;12.20;99624.00;;;;343174;28;94778;-93
2022/04/27 00:58:03;;;;;;;;;;;11.90;95.00;12.30;99629.00;;;;344158;28;93018;-93
2022/04/27 00:58:15;;;;;;;;;;;12.00;95.20;12.30;99622.00;;;;345844;28;96038;-93
2022/04/27 00:58:47;;;;;;;;;;;12.00;95.30;12.20;99634.00;;;;346991;28;91200;-94
2022/04/27 00:59:03;;;;;;;;;;;11.90;95.10;12.20;99627.00;;;;345588;28;94862;-93
2022/04/27 00:59:15;;;;;;;;;;;11.90;95.20;12.20;99625.00;;;;342664;28;91381;-93
2022/04/27 00:59:27;;;;;;;;;;;11.90;95.20;12.30;99629.00;;;;345028;28;96309;-93
2022/04/27 00:59:42;;;;;;;;;;;11.90;95.20;12.30;99625.00;;;;345569;28;91989;-93
2022/04/27 00:59:54;;;;;;;;;;;11.90;95.20;12.20;99627.00;;;;345600;28;95713;-94
2022/04/27 01:00:07;;;;;;;;;;;11.90;95.20;12.10;99619.00;;;;345435;28;91681;-92
2022/04/27 01:00:19;;;;;;;;;;;11.90;95.20;12.20;99615.00;;;;345741;28;94698;-93
2022/04/27 01:00:31;;;;;;;;;;;11.90;95.10;12.30;99620.00;;;;344029;28;93095;-94
2022/04/27 01:00:43;;;;;;;;;;;11.90;95.10;12.30;99627.00;;;;344364;28;95681;-93
2022/04/27 01:00:55;;;;;;;;;;;11.90;95.10;12.30;99621.00;;;;345580;28;91241;-93
2022/04/27 01:01:07;;;;;;;;;;;11.90;95.10;12.20;99616.00;;;;345584;28;93994;-94
2022/04/27 01:01:19;;;;;;;;;;;11.90;95.10;12.10;99623.00;;;;342809;28;92124;-93